• Join FlightAware (Why Join?)
  • Login
  • US Flag 
02:33PM EST


 

Airport Tracker/Info


-or-


 

Live Flight TrackerFlight Track Log ✈ JBU19 ✈ 28-Jul-2013 ✈ KBOS - KSAN

Flight Track Log - Related Links

Times and Time Zones

All times are in EDT time to prevent confusion due to time zone crossing. See the JBU19 flight status page for this flight to view local times or setup timezone preferences in your user account.

Time Position Orientation Groundspeed Altitude Reporting Facility
EDT Latitude Longitude Course Direction KTS MPH feet Rate Location/Type
05:39PM 42.3833 -71.0000 289° West 181 208 600  Level KA90
05:40PM 42.4167 -70.9667 36° Northeast 179 206 1,900 1,260 Climbing KA90
05:41PM 42.4500 -70.9000 56° Northeast 262 302 3,000 1,860 Climbing KA90
05:42PM 42.5785 -70.8373 308° West  Level FlightAware Approximate
05:42PM 42.5000 -70.8000 56° Northeast 281 323 5,900  Level KA90
05:43PM 42.6439 -70.9587 300° West  Level FlightAware Approximate
05:43PM 42.5575 -70.8167 348° North 302 348 7,600  Level Boston Center
05:44PM 42.6986 -71.0899 300° West  Level FlightAware Approximate
05:44PM 42.6064 -70.8831 315° West 245 282 9,900  Level Boston Center
05:45PM 42.7548 -71.2193 289° West  Level FlightAware Approximate
05:45PM 42.6536 -70.9892 301° West 255 293 12,000  Level Boston Center
05:46PM 42.6861 -71.0872 294° West 302 348 13,000 1,140 Climbing Boston Center
05:47PM 42.7192 -71.2306 287° West 345 397 14,300 1,260 Climbing Boston Center
05:48PM 42.7517 -71.3544 290° West 380 437 15,600 1,680 Climbing Boston Center
05:49PM 42.7883 -71.5122 288° West 394 453 17,800 1,560 Climbing Boston Center
05:50PM 42.8186 -71.6419 288° West 400 460 18,800 1,140 Climbing Boston Center
05:51PM 42.8550 -71.7886 289° West 400 460 20,100 1,140 Climbing Boston Center
05:52PM 42.8911 -71.9414 288° West 407 468 21,200 1,080 Climbing Boston Center
05:53PM 42.9272 -72.0969 288° West 423 487 22,300 960 Climbing Boston Center
05:54PM 42.9567 -72.2244 288° West 429 494 23,200 1,140 Climbing Boston Center
05:55PM 43.0131 -72.4286 291° West 442 509 24,600 1,020 Climbing Boston Center
05:56PM 43.0483 -72.5936 286° West 447 514 25,300 780 Climbing Boston Center
05:57PM 43.0772 -72.7472 284° West 458 527 26,200 960 Climbing Boston Center
05:58PM 43.1122 -72.9122 286° West 458 527 27,200 900 Climbing Boston Center
05:59PM 43.1572 -73.0919 289° West 452 520 28,000 840 Climbing Boston Center
06:00PM 43.1936 -73.2544 287° West 452 520 29,000 840 Climbing Boston Center
06:01PM 43.2256 -73.4203 285° West 452 520 29,900 960 Climbing Boston Center
06:02PM 43.2697 -73.6147 287° West 457 526 31,100 1,080 Climbing Boston Center
06:03PM 43.2994 -73.7608 286° West 457 526 32,100 900 Climbing Boston Center
06:04PM 43.3289 -73.8900 287° West 452 520 33,000 900 Climbing Boston Center
06:05PM 43.3681 -74.0767 286° West 441 507 34,000 480 Climbing Boston Center
06:06PM 43.4033 -74.2406 287° West 436 502 34,000  Level Boston Center
06:07PM 43.4381 -74.4017 287° West 436 502 34,000  Level Boston Center
06:08PM 43.4728 -74.5658 286° West 436 502 34,000  Level Boston Center
06:09PM 43.4994 -74.6956 286° West 436 502 34,000 -60 Level Boston Center
06:10PM 43.5433 -74.8919 287° West 441 507 33,900 -60 Descending Boston Center
06:11PM 43.5772 -75.0567 286° West 441 507 33,900  Level Boston Center
06:12PM 43.6033 -75.1897 285° West 441 507 34,000  Climbing Boston Center
06:13PM 43.6442 -75.3897 286° West 446 513 34,000 -60 Level Boston Center
06:14PM 43.6753 -75.5550 285° West 446 513 33,900 -60 Descending Boston Center
06:15PM 43.7081 -75.7203 285° West 446 513 33,900  Level Boston Center
06:16PM 43.7428 -75.8861 286° West 446 513 33,900  Level Boston Center
06:17PM 43.7750 -76.0547 285° West 446 513 34,000  Climbing Boston Center
06:18PM 43.8125 -76.2556 285° West 451 519 33,900 -60 Descending Boston Center
06:20PM 43.8442 -76.4219 285° West 451 519 33,900  Level Boston Center
06:20PM 43.8781 -76.5856 286° West 451 519 34,000  Climbing Boston Center
06:22PM 43.9333 -76.7333 297° West 470 541 34,000  Level Toronto Center
06:23PM 44.0000 -76.9167 297° West 480 552 34,000  Level Toronto Center
06:24PM 44.0667 -77.0500 305° West 480 552 34,000  Level Toronto Center
06:25PM 44.1333 -77.2333 297° West 480 552 34,000  Level Toronto Center
06:26PM 44.2167 -77.4000 305° West 480 552 34,000  Level Toronto Center
06:27PM 44.2667 -77.5333 298° West 490 564 34,000  Level Toronto Center
06:28PM 44.3167 -77.7167 291° West 470 541 34,000  Level Toronto Center
06:29PM 44.3333 -77.8833 278° West 450 518 34,000  Level Toronto Center
06:30PM 44.3500 -78.0667 277° West 430 495 34,000  Level Toronto Center
06:31PM 44.3500 -78.2333 270° West 430 495 34,000 -60 Level Toronto Center
06:32PM 44.3667 -78.4000 278° West 430 495 33,900  Descending Toronto Center
06:33PM 44.4000 -78.5667 286° West 430 495 34,000  Climbing Toronto Center
06:34PM 44.4000 -78.7167 270° West 430 495 34,000  Level Toronto Center
06:35PM 44.4167 -78.9167 277° West 430 495 34,000  Level Toronto Center
06:36PM 44.4167 -79.0667 270° West 430 495 34,000  Level Toronto Center
06:37PM 44.4333 -79.2333 278° West 430 495 34,000  Level Toronto Center
06:38PM 44.4500 -79.4000 278° West 430 495 34,000  Level Toronto Center
06:39PM 44.4500 -79.5833 270° West 440 506 34,000  Level Toronto Center
06:40PM 44.4667 -79.7500 278° West 440 506 34,000  Level Toronto Center
06:41PM 44.4667 -79.9167 270° West 440 506 34,000 -60 Level Toronto Center
06:42PM 44.4833 -80.0833 278° West 440 506 33,900  Descending Toronto Center
06:43PM 44.5000 -80.2667 277° West 450 518 34,000  Climbing Toronto Center
06:44PM 44.5000 -80.4333 270° West 450 518 34,000  Level Toronto Center
06:45PM 44.5167 -80.6167 277° West 450 518 34,000  Level Toronto Center
06:46PM 44.5167 -80.7833 270° West 450 518 34,000  Level Toronto Center
06:47PM 44.5167 -80.9667 270° West 450 518 34,000  Level Toronto Center
06:48PM 44.5167 -81.1333 270° West 450 518 34,000  Level Toronto Center
06:49PM 44.5167 -81.3167 270° West 450 518 34,000  Level Toronto Center
06:50PM 44.5167 -81.4833 270° West 450 518 34,000  Level Toronto Center
06:51PM 44.5333 -81.6667 277° West 450 518 34,000  Level Toronto Center
06:52PM 44.5333 -81.8333 270° West 450 518 34,000  Level Toronto Center
06:53PM 44.5167 -82.0167 263° West 460 529 34,000  Level Toronto Center
06:54PM 44.5167 -82.2000 270° West 460 529 34,000  Level Toronto Center
06:55PM 44.5333 -82.4000 277° West 450 518 34,000  Level Toronto Center
06:56PM 44.5333 -82.5500 270° West 460 529 34,000  Level Toronto Center
06:57PM 44.5167 -82.7167 262° West 450 518 34,000  Level Toronto Center
06:58PM 44.5333 -82.9000 277° West 450 518 34,000  Level Toronto Center
06:59PM 44.5333 -83.0667 270° West 460 529 34,000 -60 Level Toronto Center
07:00PM 44.5167 -83.2500 263° West 450 518 33,900  Descending Toronto Center
07:01PM 44.5167 -83.4167 270° West 450 518 34,000  Climbing Toronto Center
07:02PM 44.5333 -83.6167 277° West 440 506 34,000  Level Toronto Center
07:03PM 44.5167 -83.7667 261° West 450 518 34,000  Level Toronto Center
07:03PM 44.5317 -83.8453 285° West 449 517 34,000 -60 Level Minneapolis Center
07:04PM 44.5294 -84.0508 269° West 442 509 33,900 -60 Descending Minneapolis Center
07:05PM 44.5269 -84.2569 269° West 442 509 33,900  Level Minneapolis Center
07:06PM 44.5247 -84.4261 269° West 438 504 34,000  Climbing Minneapolis Center
07:07PM 44.5214 -84.5958 268° West 436 502 33,900 -60 Descending Minneapolis Center
07:08PM 44.5194 -84.7667 269° West 439 505 33,900  Level Minneapolis Center
07:09PM 44.5156 -84.9383 268° West 441 507 34,000  Climbing Minneapolis Center
07:10PM 44.5114 -85.1442 268° West 441 507 33,900  Descending Minneapolis Center
07:11PM 44.5078 -85.3167 268° West 443 510 34,000  Climbing Minneapolis Center
07:13PM 44.5033 -85.4867 268° West 439 505 34,000  Level Minneapolis Center
07:14PM 44.4986 -85.6583 268° West 439 505 34,000  Level Minneapolis Center
07:15PM 44.4936 -85.8292 268° West 437 503 34,000  Level Minneapolis Center
07:16PM 44.4883 -85.9975 268° West 431 496 34,000  Level Minneapolis Center
07:17PM 44.4833 -86.1653 268° West 428 493 34,000 -60 Level Minneapolis Center
07:18PM 44.4775 -86.3625 268° West 421 484 33,900 -60 Descending Minneapolis Center
07:19PM 44.4728 -86.4964 267° West 426 490 33,900  Level Minneapolis Center
07:20PM 44.4658 -86.6964 267° West 429 494 34,000  Climbing Minneapolis Center
07:21PM 44.4586 -86.8650 267° West 433 498 34,000  Level Minneapolis Center
07:22PM 44.4519 -87.0347 267° West 435 501 34,000  Level Minneapolis Center
07:23PM 44.4453 -87.2069 267° West 440 506 34,000  Level Minneapolis Center
07:24PM 44.4375 -87.4258 267° West 445 512 34,000  Level Minneapolis Center
07:25PM 44.4294 -87.6253 267° West 443 510 34,000 120 Level Minneapolis Center
07:26PM 44.4206 -87.7944 266° West 440 506 34,300 780 Climbing Minneapolis Center
07:27PM 44.4153 -87.9319 267° West 432 497 35,700 720 Climbing Minneapolis Center
07:28PM 44.4072 -88.1197 267° West 420 483 36,000 120 Climbing Minneapolis Center
07:29PM 44.3953 -88.3322 266° West 413 475 36,000  Level Minneapolis Center
07:31PM 44.3872 -88.4906 266° West 411 473 36,000  Level Minneapolis Center
07:32PM 44.3781 -88.6519 266° West 416 479 36,000  Level Minneapolis Center
07:33PM 44.3692 -88.8150 266° West 421 484 36,000  Level Minneapolis Center
07:34PM 44.3606 -88.9767 266° West 420 483 36,000  Level Minneapolis Center
07:35PM 44.3497 -89.1644 265° West 418 481 36,000  Level Minneapolis Center
07:36PM 44.3408 -89.3228 266° West 414 476 36,000  Level Minneapolis Center
07:37PM 44.3325 -89.4556 265° West 412 474 36,000  Level Minneapolis Center
07:38PM 44.3217 -89.6392 265° West 409 471 36,000  Level Minneapolis Center
07:39PM 44.3111 -89.7978 265° West 410 472 36,000  Level Minneapolis Center
07:40PM 44.2994 -89.9786 265° West 406 467 36,000  Level Minneapolis Center
07:41PM 44.2881 -90.1578 265° West 400 460 36,000  Level Minneapolis Center
07:42PM 44.2772 -90.3103 264° West 397 457 36,000  Level Minneapolis Center
07:43PM 44.2694 -90.4386 265° West 398 458 36,000  Level Minneapolis Center
07:44PM 44.2561 -90.6200 264° West 399 459 36,000  Level Minneapolis Center
07:45PM 44.2425 -90.8036 264° West 402 463 36,000  Level Minneapolis Center
07:46PM 44.2317 -90.9567 264° West 400 460 36,000  Level Minneapolis Center
07:47PM 44.2208 -91.1067 264° West 396 456 36,000  Level Minneapolis Center
07:48PM 44.2103 -91.2583 265° West 398 458 36,000  Level Minneapolis Center
07:49PM 44.1972 -91.4100 263° West 398 458 36,000  Level Minneapolis Center
07:50PM 44.1817 -91.5947 263° West 400 460 36,000  Level Minneapolis Center
07:52PM 44.1694 -91.7750 265° West 395 455 36,000  Level Minneapolis Center
07:53PM 44.1567 -91.9253 263° West 392 451 36,000  Level Minneapolis Center
07:54PM 44.1433 -92.0742 263° West 391 450 36,000  Level Minneapolis Center
07:55PM 44.1319 -92.2239 264° West 390 449 36,000  Level Minneapolis Center
07:56PM 44.1178 -92.3717 262° West 387 445 36,000  Level Minneapolis Center
07:57PM 44.1031 -92.5486 263° West 384 442 36,000  Level Minneapolis Center
07:58PM 44.0897 -92.6936 263° West 379 436 36,000  Level Minneapolis Center
07:59PM 44.0778 -92.8397 264° West 380 437 36,000 -60 Level Minneapolis Center
08:00PM 44.0631 -92.9867 262° West 382 440 35,900  Descending Minneapolis Center
08:01PM 44.0508 -93.1339 263° West 383 441 36,000  Climbing Minneapolis Center
08:02PM 44.0367 -93.2833 263° West 386 444 36,000  Level Minneapolis Center
08:03PM 44.0225 -93.4342 263° West 392 451 36,000  Level Minneapolis Center
08:04PM 44.0036 -93.6167 262° West 396 456 36,000  Level Minneapolis Center
08:05PM 43.9867 -93.7989 263° West 395 455 36,000  Level Minneapolis Center
08:06PM 43.9714 -93.9503 262° West 396 456 36,000  Level Minneapolis Center
08:07PM 43.9564 -94.1014 262° West 396 456 36,000  Level Minneapolis Center
08:08PM 43.9442 -94.2219 262° West 394 453 36,000  Level Minneapolis Center
08:09PM 43.9228 -94.4214 262° West 390 449 36,000  Level Minneapolis Center
08:10PM 43.9106 -94.5406 262° West 391 450 36,000  Level Minneapolis Center
08:11PM 43.8919 -94.7178 262° West 389 448 36,000  Level Minneapolis Center
08:12PM 43.8758 -94.8664 261° West 389 448 36,000  Level Minneapolis Center
08:14PM 43.8485 -95.0278 257° West  Level FlightAware Approximate
08:14PM 43.8425 -95.1622 257° West 390 449 36,000  Level Minneapolis Center
08:16PM 43.8172 -95.2792 253° West 398 458 36,000  Level Minneapolis Center
08:17PM 43.7500 -95.4761 245° Southwest 402 463 36,000  Level Minneapolis Center
08:18PM 43.7017 -95.6181 245° Southwest 405 466 36,000  Level Minneapolis Center
08:19PM 43.6533 -95.7606 245° Southwest 407 468 36,000  Level Minneapolis Center
08:20PM 43.6144 -95.8733 245° Southwest 406 467 36,000  Level Minneapolis Center
08:21PM 43.5561 -96.0406 244° Southwest 403 464 36,000  Level Minneapolis Center
08:22PM 43.5083 -96.1794 245° Southwest 400 460 36,000  Level Minneapolis Center
08:23PM 43.4686 -96.2911 244° Southwest 402 463 36,000  Level Minneapolis Center
08:24PM 43.4106 -96.4581 244° Southwest 402 463 36,000  Level Minneapolis Center
08:25PM 43.3528 -96.6203 244° Southwest 399 459 36,000  Level Minneapolis Center
08:26PM 43.3039 -96.7586 244° Southwest 399 459 36,000  Level Minneapolis Center
08:27PM 43.2556 -96.8975 244° Southwest 401 461 36,000  Level Minneapolis Center
08:28PM 43.2072 -97.0344 244° Southwest 401 461 36,000  Level Minneapolis Center
08:29PM 43.1678 -97.1447 244° Southwest 403 464 36,000  Level Minneapolis Center
08:30PM 43.1089 -97.3086 244° Southwest 400 460 36,000  Level Minneapolis Center
08:31PM 43.0600 -97.4447 244° Southwest 399 459 36,000  Level Minneapolis Center
08:32PM 43.0006 -97.6039 243° Southwest 394 453 36,000  Level Minneapolis Center
08:33PM 42.9519 -97.7381 244° Southwest 394 453 36,000  Level Minneapolis Center
08:34PM 42.9033 -97.8728 244° Southwest 396 456 36,000  Level Minneapolis Center
08:35PM 42.8522 -98.0039 242° Southwest 395 455 36,000  Level Minneapolis Center
08:36PM 42.8122 -98.1092 243° Southwest 392 451 36,000  Level Minneapolis Center
08:37PM 42.7489 -98.2883 244° Southwest 395 455 36,000  Level Minneapolis Center
08:38PM 42.6989 -98.4222 243° Southwest 397 457 36,000  Level Minneapolis Center
08:39PM 42.6489 -98.5539 243° Southwest 394 453 36,000  Level Minneapolis Center
08:40PM 42.5978 -98.6869 242° Southwest 397 457 36,000  Level Minneapolis Center
08:41PM 42.5481 -98.8192 243° Southwest 395 455 36,000  Level Minneapolis Center
08:42PM 42.4975 -98.9506 242° Southwest 395 455 36,000  Level Minneapolis Center
08:43PM 42.4364 -99.1086 242° Southwest 395 455 36,000  Level Minneapolis Center
08:44PM 42.3869 -99.2408 243° Southwest 395 455 36,000  Level Minneapolis Center
08:45PM 42.3350 -99.3717 242° Southwest 396 456 36,000  Level Minneapolis Center
08:47PM 42.2728 -99.5319 242° Southwest 399 459 36,000  Level Denver Center
08:47PM 42.2322 -99.6367 242° Southwest 398 458 36,000  Level Minneapolis Center
08:49PM 42.1803 -99.7675 242° Southwest 398 458 36,000  Level Minneapolis Center
08:50PM 42.1383 -99.8744 242° Southwest 400 460 36,000  Level Minneapolis Center
08:51PM 42.0656 -100.0575 242° Southwest 402 463 36,000  Level Denver Center
08:52PM 42.0069 -100.2028 242° Southwest 398 458 36,000  Level Denver Center
08:53PM 41.9578 -100.3272 242° Southwest 396 456 36,000  Level Denver Center
08:54PM 41.9075 -100.4517 242° Southwest 397 457 36,000  Level Denver Center
08:55PM 41.8489 -100.5961 241° Southwest 396 456 36,000  Level Denver Center
08:56PM 41.7903 -100.7411 242° Southwest 397 457 36,000  Level Denver Center
08:57PM 41.7400 -100.8647 241° Southwest 396 456 36,000  Level Denver Center
08:58PM 41.6819 -101.0064 241° Southwest 392 451 36,000  Level Denver Center
08:59PM 41.6314 -101.1278 241° Southwest 391 450 36,000  Level Denver Center
09:00PM 41.5728 -101.2700 241° Southwest 394 453 36,000  Level Denver Center
09:01PM 41.5231 -101.3914 241° Southwest 391 450 36,000  Level Denver Center
09:02PM 41.4706 -101.5144 240° Southwest 398 458 36,000  Level Denver Center
09:03PM 41.4117 -101.6578 241° Southwest 397 457 36,000  Level Denver Center
09:04PM 41.3603 -101.7794 241° Southwest 395 455 36,000  Level Denver Center
09:05PM 41.3000 -101.9219 241° Southwest 397 457 36,000  Level Denver Center
09:06PM 41.2467 -102.0439 240° Southwest 398 458 36,000  Level Denver Center
09:07PM 41.1881 -102.1844 241° Southwest 393 452 36,000  Level Denver Center
09:08PM 41.1361 -102.3061 240° Southwest 395 455 36,000  Level Denver Center
09:09PM 41.0753 -102.4447 240° Southwest 390 449 36,000  Level Denver Center
09:10PM 41.0233 -102.5636 240° Southwest 391 450 36,000  Level Denver Center
09:11PM 40.9544 -102.7225 240° Southwest 391 450 36,000  Level Denver Center
09:12PM 40.9019 -102.8439 240° Southwest 396 456 36,000  Level Denver Center
09:14PM 40.8408 -102.9831 240° Southwest 393 452 36,000  Level Denver Center
09:15PM 40.7842 -103.1119 240° Southwest 397 457 36,100  Climbing Denver Center
09:16PM 40.7194 -103.2589 240° Southwest 389 448 36,000 -60 Descending Denver Center
09:17PM 40.6533 -103.4050 239° Southwest 389 448 36,000  Level Denver Center
09:18PM 40.5994 -103.5264 240° Southwest 385 443 36,000  Level Denver Center
09:19PM 40.5439 -103.6497 239° Southwest 391 450 36,000  Level Denver Center
09:20PM 40.4889 -103.7731 240° Southwest 393 452 36,000  Level Denver Center
09:21PM 40.4222 -103.9253 240° Southwest 405 466 36,000  Level Denver Center
09:22PM 40.3656 -104.0478 239° Southwest 395 455 36,000  Level Denver Center
09:23PM 40.3089 -104.1719 239° Southwest 396 456 36,000  Level Denver Center
09:24PM 40.2528 -104.2950 239° Southwest 395 455 36,000  Level Denver Center
09:25PM 40.1956 -104.4189 239° Southwest 398 458 36,000  Level Denver Center
09:26PM 40.1397 -104.5411 239° Southwest 394 453 36,000  Level Denver Center
09:27PM 40.0719 -104.6892 239° Southwest 397 457 36,000  Level Denver Center
09:28PM 40.0153 -104.8122 239° Southwest 400 460 36,000  Level Denver Center
09:30PM 39.9586 -104.9319 238° Southwest 391 450 36,000  Level Denver Center
09:31PM 39.8894 -105.0789 239° Southwest 397 457 36,000  Level Denver Center
09:32PM 39.8314 -105.2008 238° Southwest 399 459 36,000  Level Denver Center
09:33PM 39.7717 -105.3250 238° Southwest 405 466 36,000  Level Denver Center
09:34PM 39.7017 -105.4708 238° Southwest 402 463 36,000  Level Denver Center
09:35PM 39.6444 -105.5917 238° Southwest 395 455 36,000 480 Level Denver Center
09:36PM 39.5867 -105.7117 238° Southwest 382 440 37,000 960 Climbing Denver Center
09:37PM 39.5319 -105.8261 238° Southwest 374 430 38,000 480 Climbing Denver Center
09:38PM 39.4792 -105.9408 239° Southwest 373 429 38,000  Level Denver Center
09:39PM 39.4211 -106.0578 237° Southwest 384 442 38,000  Level Denver Center
09:40PM 39.3533 -106.1969 238° Southwest 380 437 38,000  Level Denver Center
09:41PM 39.2994 -106.3067 238° Southwest 378 435 38,000  Level Denver Center
09:42PM 39.2458 -106.4169 238° Southwest 379 436 38,000  Level Denver Center
09:43PM 39.1819 -106.5467 238° Southwest 382 440 38,000  Level Denver Center
09:44PM 39.1169 -106.6506 231° Southwest 387 445 38,000  Level Denver Center
09:45PM 39.0311 -106.7636 226° Southwest 394 453 38,000  Level Denver Center
09:46PM 38.9567 -106.8614 226° Southwest 397 457 38,000  Level Denver Center
09:47PM 38.8725 -106.9739 226° Southwest 393 452 38,000  Level Denver Center
09:48PM 38.8106 -107.0578 227° Southwest 388 447 38,000  Level Denver Center
09:49PM 38.7353 -107.1581 226° Southwest 386 444 38,000  Level Denver Center
09:50PM 38.6461 -107.2775 226° Southwest 388 447 38,000  Level Denver Center
09:51PM 38.5742 -107.3756 227° Southwest 391 450 38,000  Level Denver Center
09:52PM 38.4892 -107.4867 226° Southwest 391 450 38,000  Level Denver Center
09:53PM 38.4158 -107.5814 225° Southwest 391 450 38,000  Level Denver Center
09:54PM 38.3397 -107.6989 230° Southwest 388 447 38,000  Level Denver Center
09:55PM 38.2783 -107.8289 239° Southwest 385 443 38,000  Level Denver Center
09:57PM 38.2164 -107.9608 239° Southwest 387 445 38,000  Level Denver Center
09:58PM 38.1533 -108.0925 239° Southwest 389 448 38,000  Level Denver Center
09:59PM 38.0908 -108.2211 238° Southwest 384 442 38,000  Level Denver Center
10:00PM 38.0317 -108.3453 239° Southwest 385 443 38,000  Level Denver Center
10:01PM 37.9775 -108.4561 238° Southwest 385 443 38,000  Level Denver Center
10:02PM 37.9150 -108.5822 238° Southwest 382 440 38,000  Level Denver Center
10:03PM 37.8611 -108.6933 238° Southwest 384 442 38,000  Level Denver Center
10:04PM 37.8067 -108.8036 238° Southwest 386 444 38,000  Level Denver Center
10:05PM 37.7433 -108.9308 238° Southwest 382 440 38,000  Level Denver Center
10:06PM 37.6897 -109.0406 238° Southwest 383 441 38,000  Level Denver Center
10:07PM 37.6258 -109.1683 238° Southwest 386 444 38,000  Level Denver Center
10:08PM 37.5717 -109.2772 238° Southwest 385 443 38,000  Level Denver Center
10:09PM 37.5067 -109.4067 238° Southwest 390 449 38,000  Level Denver Center
10:10PM 37.4422 -109.5356 238° Southwest 390 449 38,000  Level Denver Center
10:11PM 37.3767 -109.6647 237° Southwest 392 451 38,000  Level Denver Center
10:12PM 37.3217 -109.7756 238° Southwest 392 451 38,000  Level Denver Center
10:13PM 37.2653 -109.8861 237° Southwest 393 452 38,000  Level Denver Center
10:14PM 37.2011 -110.0125 238° Southwest 387 445 38,000  Level Denver Center
10:15PM 37.1347 -110.1403 237° Southwest 390 449 38,000  Level Denver Center
10:17PM 37.0747 -110.2589 238° Southwest 388 447 38,000  Level Denver Center
10:18PM 37.0275 -110.3503 237° Southwest 391 450 38,000  Level Denver Center
10:19PM 36.9564 -110.4878 237° Southwest 390 449 38,000  Level Denver Center
10:20PM 36.9089 -110.5789 237° Southwest 389 448 38,000  Level Denver Center
10:21PM 36.8378 -110.7167 237° Southwest 391 450 38,000  Level Denver Center
10:22PM 36.7772 -110.8308 237° Southwest 393 452 38,000  Level Denver Center
10:23PM 36.7183 -110.9447 237° Southwest 392 451 38,000  Level Denver Center
10:24PM 36.6472 -111.0803 237° Southwest 389 448 38,000  Level Denver Center
10:25PM 36.5872 -111.1931 236° Southwest 391 450 38,000  Level Denver Center
10:26PM 36.5269 -111.3050 236° Southwest 390 449 38,000  Level Denver Center
10:27PM 36.4692 -111.4169 237° Southwest 387 445 38,000  Level Denver Center
10:28PM 36.4072 -111.5308 236° Southwest 393 452 38,000  Level Denver Center
10:29PM 36.3475 -111.6442 237° Southwest 392 451 38,000  Level Denver Center
10:30PM 36.2867 -111.7569 236° Southwest 393 452 38,000  Level Denver Center
10:30PM 36.2486 -111.8269 236° Southwest 394 453 38,000  Level Los Angeles Center
10:31PM 36.1872 -111.9400 236° Southwest 395 455 38,000  Level Los Angeles Center
10:32PM 36.1322 -112.0422 236° Southwest 396 456 38,000  Level Los Angeles Center
10:33PM 36.0586 -112.1772 236° Southwest 397 457 38,000  Level Los Angeles Center
10:34PM 36.0039 -112.2800 237° Southwest 394 453 38,000  Level Los Angeles Center
10:36PM 35.9372 -112.4000 236° Southwest 394 453 38,000  Level Los Angeles Center
10:37PM 35.8644 -112.5331 236° Southwest 394 453 38,000  Level Los Angeles Center
10:38PM 35.8025 -112.6447 236° Southwest 396 456 38,000  Level Los Angeles Center
10:39PM 35.7417 -112.7564 236° Southwest 397 457 38,000  Level Los Angeles Center
10:40PM 35.6694 -112.8861 236° Southwest 397 457 38,000  Level Los Angeles Center
10:41PM 35.5944 -113.0214 236° Southwest 398 458 38,000  Level Los Angeles Center
10:42PM 35.5314 -113.1336 235° Southwest 399 459 38,000  Level Los Angeles Center
10:43PM 35.4683 -113.2478 236° Southwest 401 461 38,000  Level Los Angeles Center
10:44PM 35.3953 -113.3769 235° Southwest 401 461 38,000  Level Los Angeles Center
10:45PM 35.3197 -113.5103 235° Southwest 401 461 38,000  Level Los Angeles Center
10:46PM 35.2567 -113.6208 235° Southwest 401 461 38,000  Level Los Angeles Center
10:47PM 35.1939 -113.7322 235° Southwest 401 461 38,000  Level Los Angeles Center
10:48PM 35.1314 -113.8436 236° Southwest 400 460 38,000  Level Los Angeles Center
10:50PM 35.0556 -113.9769 235° Southwest 402 463 38,000 -480 Level Los Angeles Center
10:51PM 34.9925 -114.0875 235° Southwest 401 461 37,100 -960 Descending Los Angeles Center
10:52PM 34.9294 -114.1975 235° Southwest 399 459 36,100 -1,800 Descending Los Angeles Center
10:53PM 34.8531 -114.3239 234° Southwest 411 473 33,500 -2,700 Descending Los Angeles Center
10:54PM 34.7842 -114.4439 235° Southwest 431 496 30,600 -1,620 Descending Los Angeles Center
10:55PM 34.6828 -114.5681 225° Southwest 431 496 29,900 -300 Descending Los Angeles Center
10:56PM 34.5975 -114.6647 223° Southwest 421 484 30,000  Climbing Los Angeles Center
10:57PM 34.5153 -114.7606 224° Southwest 410 472 29,900  Descending Los Angeles Center
10:58PM 34.4481 -114.8364 223° Southwest 412 474 30,000  Climbing Los Angeles Center
10:59PM 34.3497 -114.9467 223° Southwest 403 464 30,000 -60 Level Los Angeles Center
11:00PM 34.2589 -115.0494 223° Southwest 375 432 29,900  Descending Los Angeles Center
11:01PM 34.1839 -115.1328 223° Southwest 368 423 30,000  Climbing Los Angeles Center
11:02PM 34.1078 -115.2192 223° Southwest 375 432 30,000 -60 Level Los Angeles Center
11:03PM 34.0283 -115.3069 222° Southwest 385 443 29,900  Descending Los Angeles Center
11:04PM 33.9464 -115.3992 223° Southwest 401 461 30,000  Climbing Los Angeles Center
11:05PM 33.8642 -115.4908 223° Southwest 403 464 29,900 -240 Descending Los Angeles Center
11:06PM 33.7833 -115.5819 223° Southwest 399 459 29,600 -720 Descending Los Angeles Center
11:07PM 33.6869 -115.6872 222° Southwest 392 451 28,400 -1,200 Descending Los Angeles Center
11:08PM 33.6039 -115.7875 225° Southwest 358 412 26,900 -1,500 Descending Los Angeles Center
11:09PM 33.5164 -115.8256 200° South 355 409 25,200 -1,740 Descending Los Angeles Center
11:10PM 33.4200 -115.8239 179° South 348 400 23,400 -1,620 Descending Los Angeles Center
11:12PM 33.3214 -115.8231 180° South 351 404 21,900 -1,440 Descending Los Angeles Center
11:13PM 33.2425 -115.8581 200° South 329 379 20,500 -2,100 Descending Los Angeles Center
11:14PM 33.2025 -115.9586 245° Southwest 333 383 17,600 -2,520 Descending Los Angeles Center
11:15PM 33.1531 -116.0808 244° Southwest 341 392 15,400 -1,860 Descending Los Angeles Center
11:16PM 33.1122 -116.1808 244° Southwest 338 389 13,800 -720 Descending Los Angeles Center
11:17PM 33.0722 -116.2797 244° Southwest 335 386 14,000 -240 Climbing Los Angeles Center
11:18PM 33.0344 -116.3725 244° Southwest 330 380 13,400 -1,020 Descending Los Angeles Center
11:19PM 32.9836 -116.4553 234° Southwest 325 374 12,000 -1,500 Descending Los Angeles Center
11:20PM 32.8853 -116.5125 206° Southwest 327 376 10,400 -1,260 Descending Los Angeles Center
11:21PM 32.8097 -116.5567 206° Southwest 319 367 9,500 -1,200 Descending Los Angeles Center
11:22PM 32.7397 -116.5933 204° Southwest 289 333 8,000 -1,080 Descending Los Angeles Center
11:23PM 32.6783 -116.6350 210° Southwest 277 319 7,300 -900 Descending Los Angeles Center
11:24PM 32.6703 -116.7078 263° West 235 270 6,200 -660 Descending Los Angeles Center
11:25PM 32.6717 -116.7964 271° West 225 259 6,000 -540 Descending Los Angeles Center
11:26PM 32.6703 -116.8556 268° West 190 219 5,200 -900 Descending Los Angeles Center
11:27PM 32.6672 -116.9144 266° West 180 207 4,200 -780 Descending Los Angeles Center
11:28PM 32.6797 -116.9711 285° West 180 207 3,600 -840 Descending Los Angeles Center
11:29PM 32.6950 -117.0278 288° West 180 207 2,600 -900 Descending Los Angeles Center
11:30PM 32.7083 -117.0850 285° West 180 207 1,800 -660 Descending Los Angeles Center
11:31PM 32.7169 -117.1253 284° West 169 194 1,300 -840 Descending Los Angeles Center
11:32PM 32.7303 -117.1783 287° West 143 165 100 -1,200 Descending Los Angeles Center